createdAt,value
2022-07-27T00:02:41.788Z,23.34
2022-07-27T00:08:03.637Z,23.32
2022-07-27T00:13:25.399Z,23.29
2022-07-27T00:18:47.136Z,23.29
2022-07-27T00:24:08.961Z,23.27
2022-07-27T00:29:30.644Z,23.27
2022-07-27T00:34:52.417Z,23.26
2022-07-27T00:40:14.629Z,23.28
2022-07-27T00:45:36.503Z,23.27
2022-07-27T00:50:58.187Z,23.25
2022-07-27T00:56:20.743Z,23.24
2022-07-27T01:01:43.482Z,23.23
2022-07-27T01:07:06.652Z,23.22
2022-07-27T01:12:30.587Z,23.23
2022-07-27T01:17:52.294Z,23.21
2022-07-27T01:23:14.000Z,23.21
2022-07-27T01:28:35.721Z,23.20
2022-07-27T01:33:57.904Z,23.19
2022-07-27T01:39:19.972Z,23.18
2022-07-27T01:44:41.650Z,23.17
2022-07-27T01:50:04.028Z,23.16
2022-07-27T01:55:25.781Z,23.15
2022-07-27T02:00:49.494Z,23.17
2022-07-27T02:06:11.188Z,23.17
2022-07-27T02:11:51.138Z,23.16
2022-07-27T02:17:12.798Z,23.15
2022-07-27T02:22:34.567Z,23.14
2022-07-27T02:27:56.272Z,23.14
2022-07-27T02:33:18.145Z,23.12
2022-07-27T02:38:40.159Z,23.12
2022-07-27T02:44:01.823Z,23.12
2022-07-27T02:49:23.678Z,23.10
2022-07-27T02:54:45.484Z,23.10
2022-07-27T03:00:13.178Z,23.10
2022-07-27T03:05:34.902Z,23.08
2022-07-27T03:10:56.590Z,23.07
2022-07-27T03:16:18.354Z,23.04
2022-07-27T03:21:40.155Z,23.05
2022-07-27T03:27:02.141Z,23.05
2022-07-27T03:32:23.971Z,23.04
2022-07-27T03:37:45.665Z,23.03
2022-07-27T03:43:07.967Z,23.02
2022-07-27T03:48:29.770Z,23.01
2022-07-27T03:53:51.536Z,23.00
2022-07-27T03:59:13.842Z,23.00
2022-07-27T04:04:35.828Z,22.99
2022-07-27T04:09:57.515Z,22.99
2022-07-27T04:15:19.224Z,22.98
2022-07-27T04:20:41.022Z,22.99
2022-07-27T04:26:02.717Z,22.97
2022-07-27T04:31:24.598Z,22.96
2022-07-27T04:36:46.553Z,22.95
2022-07-27T04:42:08.659Z,22.95
2022-07-27T04:47:30.378Z,22.91
2022-07-27T04:52:52.091Z,22.91
2022-07-27T04:58:14.830Z,22.93
2022-07-27T05:03:36.512Z,22.92
2022-07-27T05:08:58.463Z,22.89
2022-07-27T05:14:21.575Z,22.87
2022-07-27T05:19:43.550Z,22.84
2022-07-27T05:25:05.877Z,22.79
2022-07-27T05:30:27.657Z,22.77
2022-07-27T05:35:51.043Z,22.78
2022-07-27T05:41:12.762Z,22.70
2022-07-27T05:46:34.973Z,22.63
2022-07-27T05:51:57.221Z,22.58
2022-07-27T05:57:18.983Z,22.59
2022-07-27T06:02:41.285Z,22.59
2022-07-27T06:08:08.719Z,22.62
2022-07-27T06:13:31.751Z,22.63
2022-07-27T06:18:53.493Z,22.66
2022-07-27T06:24:15.250Z,22.71
2022-07-27T06:29:36.928Z,22.83
2022-07-27T06:35:00.330Z,22.95
2022-07-27T06:40:24.443Z,23.07
2022-07-27T06:45:48.812Z,23.17
2022-07-27T06:51:10.604Z,23.28
2022-07-27T06:56:33.036Z,23.38
2022-07-27T07:01:54.704Z,23.46
2022-07-27T07:07:16.402Z,23.53
2022-07-27T07:12:38.082Z,23.59
2022-07-27T07:17:59.771Z,23.62
2022-07-27T07:23:24.469Z,23.65
2022-07-27T07:28:46.177Z,23.68
2022-07-27T07:34:07.910Z,23.68
2022-07-27T07:39:31.669Z,23.64
2022-07-27T07:44:53.517Z,23.60
2022-07-27T07:50:15.684Z,23.61
2022-07-27T07:55:37.492Z,23.57
2022-07-27T08:00:59.271Z,23.55
2022-07-27T08:06:20.976Z,23.54
2022-07-27T08:11:43.219Z,23.52
2022-07-27T08:17:04.985Z,23.50
2022-07-27T08:22:26.699Z,23.52
2022-07-27T08:27:48.436Z,23.54
2022-07-27T08:33:10.208Z,23.55
2022-07-27T08:38:31.912Z,23.58
2022-07-27T08:43:54.768Z,23.61
2022-07-27T08:49:17.990Z,23.60
2022-07-27T08:54:41.377Z,23.61
2022-07-27T09:00:03.740Z,23.58
2022-07-27T09:05:27.651Z,23.59
2022-07-27T09:11:00.566Z,23.57
2022-07-27T09:17:03.105Z,23.54
2022-07-27T09:22:12.198Z,23.44
2022-07-27T09:27:33.925Z,23.37
2022-07-27T09:33:01.590Z,23.34
2022-07-27T09:38:25.301Z,23.30
2022-07-27T09:44:29.055Z,23.30
2022-07-27T09:49:34.401Z,23.31
2022-07-27T09:55:05.463Z,23.33
2022-07-27T10:00:27.459Z,23.37
2022-07-27T10:05:49.200Z,23.39
2022-07-27T10:11:12.036Z,23.37
2022-07-27T10:16:35.258Z,23.34
2022-07-27T10:21:57.024Z,23.32
2022-07-27T10:27:29.381Z,23.34
2022-07-27T10:32:51.161Z,23.34
2022-07-27T10:38:18.295Z,23.38
2022-07-27T10:43:40.162Z,23.40
2022-07-27T10:49:18.118Z,23.43
2022-07-27T10:54:40.305Z,23.42
2022-07-27T11:00:13.536Z,23.41
2022-07-27T11:11:24.699Z,23.37
2022-07-27T11:16:55.588Z,23.35
2022-07-27T11:22:53.667Z,23.38
2022-07-27T11:28:12.973Z,23.35
2022-07-27T11:33:35.010Z,23.38
2022-07-27T11:38:56.722Z,23.40
2022-07-27T11:44:18.628Z,23.43
2022-07-27T11:49:40.490Z,23.45
2022-07-27T11:55:02.863Z,23.48
2022-07-27T12:00:24.668Z,23.49
2022-07-27T12:05:51.533Z,23.52
2022-07-27T12:11:13.280Z,23.52
2022-07-27T12:16:35.295Z,23.57
2022-07-27T12:21:57.064Z,23.60
2022-07-27T12:27:19.010Z,23.61
2022-07-27T12:32:45.155Z,23.61
2022-07-27T12:38:09.354Z,23.59
2022-07-27T12:43:31.096Z,23.55
2022-07-27T12:48:52.833Z,23.51
2022-07-27T12:54:14.537Z,23.54
2022-07-27T12:59:36.280Z,23.54
2022-07-27T13:04:58.013Z,23.53
2022-07-27T13:10:20.219Z,23.58
2022-07-27T13:15:41.909Z,23.61
2022-07-27T13:21:03.760Z,23.63
2022-07-27T13:26:25.494Z,23.66
2022-07-27T13:31:55.101Z,23.69
2022-07-27T13:37:19.159Z,23.68
2022-07-27T13:42:40.877Z,23.68
2022-07-27T13:48:02.583Z,23.68
2022-07-27T13:53:26.476Z,23.65
2022-07-27T13:58:48.174Z,23.66
2022-07-27T14:04:13.164Z,23.66
2022-07-27T14:10:04.218Z,23.66
2022-07-27T14:15:26.713Z,23.69
2022-07-27T14:20:48.483Z,23.68
2022-07-27T14:26:10.532Z,23.61
2022-07-27T14:31:35.126Z,23.57
2022-07-27T14:36:57.068Z,23.55
2022-07-27T14:42:23.923Z,23.55
2022-07-27T14:47:46.245Z,23.56
2022-07-27T14:53:08.087Z,23.57
2022-07-27T14:58:29.765Z,23.58
2022-07-27T15:03:55.514Z,23.59
2022-07-27T15:09:17.415Z,23.58
2022-07-27T15:14:43.558Z,23.56
2022-07-27T15:20:08.465Z,23.56
2022-07-27T15:25:30.315Z,23.55
2022-07-27T15:30:52.058Z,23.55
2022-07-27T15:36:32.566Z,23.54
2022-07-27T15:41:55.412Z,23.54
2022-07-27T15:47:17.115Z,23.54
2022-07-27T15:52:38.793Z,23.53
2022-07-27T15:58:00.558Z,23.55
2022-07-27T16:03:23.175Z,23.53
2022-07-27T16:08:47.424Z,23.53
2022-07-27T16:14:09.174Z,23.48
2022-07-27T16:19:30.906Z,23.49
2022-07-27T16:24:52.684Z,23.48
2022-07-27T16:30:20.508Z,23.47
2022-07-27T16:35:44.303Z,23.45
2022-07-27T16:41:09.488Z,23.45
2022-07-27T16:46:31.301Z,23.45
2022-07-27T16:51:53.051Z,23.46
2022-07-27T16:57:15.994Z,23.44
2022-07-27T17:02:37.674Z,23.46
2022-07-27T17:07:59.735Z,23.46
2022-07-27T17:13:21.484Z,23.46
2022-07-27T17:18:43.170Z,23.46
2022-07-27T17:24:05.326Z,23.46
2022-07-27T17:29:27.067Z,23.46
2022-07-27T17:34:48.797Z,23.45
2022-07-27T17:40:10.548Z,23.43
2022-07-27T17:45:32.395Z,23.42
2022-07-27T17:50:54.117Z,23.42
2022-07-27T17:56:15.908Z,23.38
2022-07-27T18:01:47.224Z,23.35
2022-07-27T18:07:10.185Z,23.32
2022-07-27T18:12:31.931Z,23.32
2022-07-27T18:17:53.671Z,23.30
2022-07-27T18:23:16.233Z,23.27
2022-07-27T18:28:40.075Z,23.29
2022-07-27T18:34:03.132Z,23.27
2022-07-27T18:39:32.427Z,23.24
2022-07-27T18:44:56.566Z,23.24
2022-07-27T18:50:18.381Z,23.20
2022-07-27T18:55:40.403Z,23.21
2022-07-27T19:01:02.411Z,23.20
2022-07-27T19:06:24.244Z,23.23
2022-07-27T19:11:46.453Z,23.19
2022-07-27T19:17:10.754Z,23.18
2022-07-27T19:22:37.445Z,23.16
2022-07-27T19:28:00.055Z,23.16
2022-07-27T19:33:21.803Z,23.13
2022-07-27T19:38:43.552Z,23.12
2022-07-27T19:44:06.938Z,23.11
2022-07-27T19:49:28.789Z,23.10
2022-07-27T19:54:50.523Z,23.08
2022-07-27T20:00:13.111Z,23.06
2022-07-27T20:05:35.066Z,23.03
2022-07-27T20:10:56.797Z,23.01
2022-07-27T20:16:18.735Z,23.00
2022-07-27T20:21:40.587Z,23.03
2022-07-27T20:27:02.308Z,23.06
2022-07-27T20:32:24.100Z,23.08
2022-07-27T20:37:46.848Z,23.07
2022-07-27T20:43:08.628Z,23.05
2022-07-27T20:48:30.328Z,23.03
2022-07-27T20:53:52.492Z,23.02
2022-07-27T20:59:16.945Z,23.02
2022-07-27T21:04:39.099Z,22.99
2022-07-27T21:10:00.811Z,22.98
2022-07-27T21:15:22.569Z,22.98
2022-07-27T21:20:55.592Z,22.97
2022-07-27T21:26:18.405Z,22.97
2022-07-27T21:31:40.709Z,22.95
2022-07-27T21:37:02.729Z,22.94
2022-07-27T21:42:24.431Z,22.91
2022-07-27T21:47:46.161Z,22.91
2022-07-27T21:53:07.910Z,22.89
2022-07-27T21:58:29.569Z,22.89
2022-07-27T22:03:51.466Z,22.88
2022-07-27T22:09:14.366Z,22.87
2022-07-27T22:14:36.021Z,22.89
2022-07-27T22:19:57.735Z,22.86
2022-07-27T22:25:19.800Z,22.85
2022-07-27T22:30:41.684Z,22.85
2022-07-27T22:36:03.559Z,22.84
2022-07-27T22:41:25.349Z,22.85
2022-07-27T22:46:47.040Z,22.82
2022-07-27T22:52:08.773Z,22.81
2022-07-27T22:57:30.501Z,22.79
2022-07-27T23:02:52.239Z,22.79
2022-07-27T23:08:13.943Z,22.79
2022-07-27T23:13:35.792Z,22.78
2022-07-27T23:18:57.627Z,22.79
2022-07-27T23:24:28.807Z,22.78
2022-07-27T23:29:50.722Z,22.77
2022-07-27T23:35:12.476Z,22.77
2022-07-27T23:40:34.267Z,22.74
2022-07-27T23:45:55.965Z,22.74
2022-07-27T23:51:18.685Z,22.73
2022-07-27T23:56:40.488Z,22.72
